createdAt,value
2022-12-01T00:02:02.582Z,-8.88
2022-12-01T00:04:29.643Z,-9.09
2022-12-01T00:06:56.589Z,-9.22
2022-12-01T00:09:42.113Z,-9.65
2022-12-01T00:12:09.032Z,-9.17
2022-12-01T00:14:35.959Z,-9.06
2022-12-01T00:17:05.031Z,-9.01
2022-12-01T00:19:32.033Z,-9.19
2022-12-01T00:21:59.006Z,-8.94
2022-12-01T00:24:25.991Z,-8.93
2022-12-01T00:26:52.918Z,-9.37
2022-12-01T00:29:19.857Z,-9.21
2022-12-01T00:31:46.882Z,-9.07
2022-12-01T00:34:25.149Z,-9.04
2022-12-01T00:36:52.176Z,-9.22
2022-12-01T00:39:19.085Z,-9.29
2022-12-01T00:41:45.999Z,-9.20
2022-12-01T00:44:12.909Z,-9.11
2022-12-01T00:46:39.869Z,-9.07
2022-12-01T00:49:06.849Z,-9.05
2022-12-01T00:51:33.783Z,-9.30
2022-12-01T00:54:00.692Z,-9.19
2022-12-01T00:56:27.686Z,-9.04
2022-12-01T00:58:54.668Z,-9.26
2022-12-01T01:01:22.015Z,-9.32
2022-12-01T01:03:49.331Z,-9.27
2022-12-01T01:06:16.719Z,-9.35
2022-12-01T01:08:45.429Z,-9.36
2022-12-01T01:11:12.433Z,-9.58
2022-12-01T01:13:39.394Z,-9.59
2022-12-01T01:16:15.913Z,-9.60
2022-12-01T01:18:42.905Z,-9.51
2022-12-01T01:21:14.046Z,-9.42
2022-12-01T01:23:41.287Z,-9.32
2022-12-01T01:26:28.873Z,-9.57
2022-12-01T01:29:01.218Z,-9.40
2022-12-01T01:31:31.376Z,-9.35
2022-12-01T01:33:58.449Z,-9.62
2022-12-01T01:36:26.380Z,-9.36
2022-12-01T01:38:54.490Z,-9.38
2022-12-01T01:41:22.631Z,-9.52
2022-12-01T01:44:01.895Z,-9.47
2022-12-01T01:46:31.889Z,-9.72
2022-12-01T01:49:05.055Z,-9.51
2022-12-01T01:51:42.545Z,-9.74
2022-12-01T01:54:34.504Z,-9.62
2022-12-01T01:57:02.540Z,-9.62
2022-12-01T01:59:35.174Z,-9.70
2022-12-01T02:02:06.681Z,-9.67
2022-12-01T02:04:35.987Z,-9.70
2022-12-01T02:07:03.219Z,-9.73
2022-12-01T02:09:30.164Z,-9.75
2022-12-01T02:12:48.383Z,-9.51
2022-12-01T02:15:51.961Z,-9.67
2022-12-01T02:18:36.277Z,-9.42
2022-12-01T02:21:25.222Z,-9.41
2022-12-01T02:24:18.218Z,-9.34
2022-12-01T02:26:59.555Z,-9.37
2022-12-01T02:30:03.558Z,-9.34
2022-12-01T02:32:40.745Z,-9.39
2022-12-01T02:35:42.666Z,-9.47
2022-12-01T02:38:33.971Z,-9.52
2022-12-01T02:41:20.476Z,-9.41
2022-12-01T02:44:08.937Z,-9.58
2022-12-01T02:46:51.877Z,-9.43
2022-12-01T02:49:26.870Z,-9.50
2022-12-01T02:51:56.019Z,-9.44
2022-12-01T02:54:24.802Z,-9.71
2022-12-01T02:56:53.774Z,-9.38
2022-12-01T02:59:21.044Z,-9.45
2022-12-01T03:02:17.581Z,-9.40
2022-12-01T03:05:01.816Z,-9.40
2022-12-01T03:07:39.072Z,-9.38
2022-12-01T03:10:24.711Z,-9.40
2022-12-01T03:13:09.993Z,-9.37
2022-12-01T03:15:54.444Z,-9.39
2022-12-01T03:18:46.899Z,-9.50
2022-12-01T03:21:40.585Z,-9.38
2022-12-01T03:24:13.174Z,-9.63
2022-12-01T03:26:46.092Z,-9.74
2022-12-01T03:29:25.331Z,-9.60
2022-12-01T03:31:57.130Z,-9.82
2022-12-01T03:34:37.233Z,-9.55
2022-12-01T03:37:18.141Z,-9.50
2022-12-01T03:39:48.687Z,-9.59
2022-12-01T03:42:41.403Z,-9.75
2022-12-01T03:45:15.511Z,-9.78
2022-12-01T03:47:42.646Z,-9.96
2022-12-01T03:50:14.192Z,-9.89
2022-12-01T03:53:00.902Z,-9.96
2022-12-01T03:55:30.800Z,-9.81
2022-12-01T03:58:03.704Z,-10.48
2022-12-01T04:00:31.575Z,-9.90
2022-12-01T04:03:02.231Z,-9.75
2022-12-01T04:05:29.295Z,-9.91
2022-12-01T04:07:56.425Z,-9.80
2022-12-01T04:10:23.639Z,-9.81
2022-12-01T04:12:50.631Z,-9.73
2022-12-01T04:15:17.670Z,-9.78
2022-12-01T04:17:45.198Z,-9.72
2022-12-01T04:20:14.608Z,-9.84
2022-12-01T04:22:42.162Z,-9.86
2022-12-01T04:25:09.939Z,-9.89
2022-12-01T04:27:37.444Z,-9.96
2022-12-01T04:30:07.908Z,-9.94
2022-12-01T04:32:42.859Z,-9.95
2022-12-01T04:35:11.764Z,-10.03
2022-12-01T04:37:39.444Z,-10.04
2022-12-01T04:40:07.095Z,-9.88
2022-12-01T04:42:34.056Z,-10.06
2022-12-01T04:45:01.210Z,-10.54
2022-12-01T04:47:28.157Z,-9.94
2022-12-01T04:49:55.197Z,-10.02
2022-12-01T04:52:22.138Z,-10.01
2022-12-01T04:54:49.043Z,-9.99
2022-12-01T04:57:15.940Z,-10.15
2022-12-01T04:59:42.880Z,-10.36
2022-12-01T05:02:09.882Z,-10.05
2022-12-01T05:04:38.891Z,-9.98
2022-12-01T05:07:05.947Z,-10.01
2022-12-01T05:09:32.961Z,-9.96
2022-12-01T05:11:59.869Z,-9.89
2022-12-01T05:14:26.862Z,-9.85
2022-12-01T05:16:55.177Z,-9.85
2022-12-01T05:19:40.591Z,-10.00
2022-12-01T05:22:07.630Z,-9.83
2022-12-01T05:24:34.540Z,-9.80
2022-12-01T05:27:01.488Z,-9.80
2022-12-01T05:29:28.416Z,-9.84
2022-12-01T05:31:55.466Z,-9.72
2022-12-01T05:34:22.551Z,-9.68
2022-12-01T05:36:49.483Z,-9.77
2022-12-01T05:39:16.501Z,-9.73
2022-12-01T05:41:43.415Z,-10.33
2022-12-01T05:44:10.362Z,-9.66
2022-12-01T05:46:37.304Z,-9.67
2022-12-01T05:49:04.297Z,-9.70
2022-12-01T05:51:31.280Z,-9.75
2022-12-01T05:53:59.879Z,-9.57
2022-12-01T05:56:26.852Z,-9.85
2022-12-01T05:58:53.812Z,-9.72
2022-12-01T06:01:20.803Z,-9.57
2022-12-01T06:03:47.827Z,-9.55
2022-12-01T06:06:14.800Z,-9.58
2022-12-01T06:08:41.719Z,-9.61
2022-12-01T06:11:08.629Z,-9.95
2022-12-01T06:13:36.616Z,-9.62
2022-12-01T06:16:05.946Z,-9.68
2022-12-01T06:18:36.166Z,-9.66
2022-12-01T06:21:06.160Z,-9.70
2022-12-01T06:23:34.364Z,-9.90
2022-12-01T06:26:01.678Z,-9.53
2022-12-01T06:28:28.640Z,-9.49
2022-12-01T06:31:02.521Z,-9.43
2022-12-01T06:33:31.586Z,-9.41
2022-12-01T06:36:00.091Z,-9.38
2022-12-01T06:38:30.439Z,-9.57
2022-12-01T06:40:57.636Z,-9.22
2022-12-01T06:43:24.572Z,-9.13
2022-12-01T06:45:55.164Z,-9.15
2022-12-01T06:48:24.839Z,-9.10
2022-12-01T06:50:51.788Z,-9.00
2022-12-01T06:53:18.742Z,-8.87
2022-12-01T06:55:45.679Z,-8.79
2022-12-01T06:58:12.749Z,-8.77
2022-12-01T07:00:39.900Z,-8.71
2022-12-01T07:03:06.839Z,-8.84
2022-12-01T07:05:33.820Z,-8.57
2022-12-01T07:08:01.549Z,-8.63
2022-12-01T07:10:28.678Z,-8.61
2022-12-01T07:12:58.559Z,-8.54
2022-12-01T07:15:25.605Z,-8.35
2022-12-01T07:17:52.503Z,-8.24
2022-12-01T07:20:19.454Z,-8.36
2022-12-01T07:22:46.437Z,-8.24
2022-12-01T07:25:13.479Z,-8.23
2022-12-01T07:27:40.435Z,-8.22
2022-12-01T07:30:07.997Z,-8.42
2022-12-01T07:32:34.918Z,-8.14
2022-12-01T07:35:01.844Z,-8.86
2022-12-01T07:37:30.425Z,-8.04
2022-12-01T07:39:57.385Z,-7.89
2022-12-01T07:42:24.379Z,-7.86
2022-12-01T07:44:51.558Z,-7.72
2022-12-01T07:47:19.090Z,-8.31
2022-12-01T07:49:46.026Z,-7.78
2022-12-01T07:52:12.987Z,-7.42
2022-12-01T07:54:39.976Z,-7.39
2022-12-01T07:57:06.977Z,-7.25
2022-12-01T07:59:33.933Z,-7.14
2022-12-01T08:02:00.908Z,-7.13
2022-12-01T08:04:27.954Z,-7.08
2022-12-01T08:06:54.928Z,-7.04
2022-12-01T08:09:21.937Z,-7.08
2022-12-01T08:11:48.871Z,-6.93
2022-12-01T08:14:15.903Z,-6.78
2022-12-01T08:16:42.813Z,-6.88
2022-12-01T08:19:12.714Z,-6.67
2022-12-01T08:21:39.712Z,-6.66
2022-12-01T08:24:07.040Z,-6.47
2022-12-01T08:26:33.989Z,-6.40
2022-12-01T08:29:01.124Z,-6.49
2022-12-01T08:31:33.213Z,-6.35
2022-12-01T08:34:00.237Z,-6.52
2022-12-01T08:36:27.395Z,-6.21
2022-12-01T08:38:55.754Z,-6.23
2022-12-01T08:41:24.314Z,-6.35
2022-12-01T08:43:59.601Z,-6.38
2022-12-01T08:46:29.362Z,-6.27
2022-12-01T08:48:57.897Z,-6.28
2022-12-01T08:51:25.719Z,-6.06
2022-12-01T08:53:53.130Z,-6.01
2022-12-01T08:56:24.198Z,-6.00
2022-12-01T08:58:51.838Z,-6.11
2022-12-01T09:01:19.589Z,-6.21
2022-12-01T09:03:47.336Z,-6.29
2022-12-01T09:06:20.300Z,-6.14
2022-12-01T09:08:47.638Z,-6.12
2022-12-01T09:11:18.794Z,-6.21
2022-12-01T09:13:52.971Z,-5.97
2022-12-01T09:16:22.005Z,-5.97
2022-12-01T09:18:49.341Z,-6.23
2022-12-01T09:21:22.045Z,-6.00
2022-12-01T09:23:49.805Z,-6.43
2022-12-01T09:26:19.129Z,-5.66
2022-12-01T09:28:47.305Z,-5.47
2022-12-01T09:31:16.440Z,-5.57
2022-12-01T09:33:43.397Z,-5.14
2022-12-01T09:36:11.273Z,-4.87
2022-12-01T09:38:39.368Z,-4.77
2022-12-01T09:41:18.588Z,-4.76
2022-12-01T09:44:15.290Z,-4.76
2022-12-01T09:46:58.972Z,-4.97
2022-12-01T09:49:38.247Z,-5.00
2022-12-01T09:52:05.629Z,-5.45
2022-12-01T09:54:32.651Z,-5.08
2022-12-01T09:57:00.416Z,-5.22
2022-12-01T09:59:37.808Z,-5.18
2022-12-01T10:02:34.095Z,-5.14
2022-12-01T10:05:05.583Z,-5.17
2022-12-01T10:07:56.028Z,-5.12
2022-12-01T10:10:31.432Z,-5.19
2022-12-01T10:12:58.628Z,-5.12
2022-12-01T10:15:45.765Z,-5.12
2022-12-01T10:18:15.800Z,-5.08
2022-12-01T10:21:06.207Z,-5.04
2022-12-01T10:23:58.968Z,-4.96
2022-12-01T10:26:43.183Z,-4.90
2022-12-01T10:29:44.972Z,-4.88
2022-12-01T10:32:29.789Z,-4.98
2022-12-01T10:34:58.063Z,-5.25
2022-12-01T10:37:28.715Z,-5.21
2022-12-01T10:39:58.124Z,-5.33
2022-12-01T10:42:42.185Z,-5.30
2022-12-01T10:45:30.555Z,-5.55
2022-12-01T10:48:22.567Z,-5.50
2022-12-01T10:50:55.436Z,-5.35
2022-12-01T10:53:32.404Z,-5.26
2022-12-01T10:56:14.633Z,-5.10
2022-12-01T10:58:53.400Z,-5.38
2022-12-01T11:01:26.475Z,-4.81
2022-12-01T11:04:09.040Z,-4.59
2022-12-01T11:06:40.258Z,-4.61
2022-12-01T11:09:26.515Z,-4.49
2022-12-01T11:12:07.401Z,-3.82
2022-12-01T11:14:44.935Z,-3.64
2022-12-01T11:17:16.390Z,-3.65
2022-12-01T11:19:43.663Z,-3.65
2022-12-01T11:22:28.835Z,-3.85
2022-12-01T11:24:57.418Z,-4.34
2022-12-01T11:27:50.671Z,-4.44
2022-12-01T11:30:26.456Z,-4.52
2022-12-01T11:32:57.100Z,-4.73
2022-12-01T11:35:28.134Z,-4.57
2022-12-01T11:38:28.208Z,-4.61
2022-12-01T11:40:52.599Z,-4.66
2022-12-01T11:43:37.406Z,-5.00
2022-12-01T11:46:06.600Z,-4.91
2022-12-01T11:48:36.487Z,-4.89
2022-12-01T11:51:27.212Z,-5.05
2022-12-01T11:54:23.854Z,-4.87
2022-12-01T11:57:10.665Z,-4.95
2022-12-01T11:59:39.152Z,-5.08
2022-12-01T12:02:23.547Z,-5.05
2022-12-01T12:04:53.498Z,-5.02
2022-12-01T12:07:56.110Z,-4.99
2022-12-01T12:10:41.212Z,-5.05
2022-12-01T12:13:24.101Z,-5.25
2022-12-01T12:16:06.001Z,-5.26
2022-12-01T12:18:51.289Z,-5.44
2022-12-01T12:21:30.570Z,-5.44
2022-12-01T12:24:38.789Z,-5.64
2022-12-01T12:27:27.260Z,-5.89
2022-12-01T12:30:21.604Z,-5.89
2022-12-01T12:33:20.485Z,-6.00
2022-12-01T12:36:06.274Z,-5.89
2022-12-01T12:38:45.079Z,-5.92
2022-12-01T12:41:37.491Z,-6.20
2022-12-01T12:44:35.364Z,-6.13
2022-12-01T12:47:11.764Z,-6.22
2022-12-01T12:49:47.928Z,-6.21
2022-12-01T12:52:23.056Z,-6.31
2022-12-01T12:55:00.793Z,-6.29
2022-12-01T12:57:35.127Z,-6.21
2022-12-01T13:00:14.002Z,-6.18
2022-12-01T13:02:50.779Z,-6.24
2022-12-01T13:05:49.363Z,-6.17
2022-12-01T13:08:21.696Z,-6.23
2022-12-01T13:11:03.956Z,-6.39
2022-12-01T13:13:40.082Z,-6.24
2022-12-01T13:16:13.362Z,-6.20
2022-12-01T13:19:05.054Z,-6.14
2022-12-01T13:21:39.673Z,-6.39
2022-12-01T13:24:08.238Z,-6.32
2022-12-01T13:26:38.192Z,-6.47
2022-12-01T13:29:07.672Z,-6.46
2022-12-01T13:31:49.912Z,-6.47
2022-12-01T13:34:33.603Z,-6.74
2022-12-01T13:37:00.841Z,-6.49
2022-12-01T13:39:35.820Z,-7.09
2022-12-01T13:42:21.482Z,-6.30
2022-12-01T13:45:00.810Z,-6.28
2022-12-01T13:47:48.986Z,-6.22
2022-12-01T13:50:43.907Z,-6.28
2022-12-01T13:53:25.311Z,-6.30
2022-12-01T13:56:07.226Z,-6.23
2022-12-01T13:58:34.097Z,-6.30
2022-12-01T14:01:23.165Z,-6.28
2022-12-01T14:04:02.595Z,-6.39
2022-12-01T14:06:52.625Z,-6.33
2022-12-01T14:09:41.883Z,-6.29
2022-12-01T14:12:11.798Z,-6.32
2022-12-01T14:14:48.799Z,-6.91
2022-12-01T14:17:26.563Z,-6.21
2022-12-01T14:19:55.174Z,-6.33
2022-12-01T14:22:33.316Z,-6.57
2022-12-01T14:25:01.307Z,-6.54
2022-12-01T14:27:43.360Z,-6.63
2022-12-01T14:30:41.303Z,-6.68
2022-12-01T14:33:39.363Z,-6.70
2022-12-01T14:36:21.982Z,-6.97
2022-12-01T14:38:52.640Z,-7.03
2022-12-01T14:41:25.893Z,-6.96
2022-12-01T14:44:03.839Z,-6.98
2022-12-01T14:46:53.747Z,-6.88
2022-12-01T14:49:25.875Z,-6.78
2022-12-01T14:52:04.599Z,-6.72
2022-12-01T14:54:39.384Z,-6.80
2022-12-01T14:57:11.117Z,-6.83
2022-12-01T14:59:41.027Z,-6.77
2022-12-01T15:02:13.601Z,-6.74
2022-12-01T15:05:06.595Z,-6.60
2022-12-01T15:07:42.537Z,-6.63
2022-12-01T15:10:23.153Z,-6.71
2022-12-01T15:12:51.341Z,-6.80
2022-12-01T15:15:25.058Z,-6.77
2022-12-01T15:17:55.554Z,-6.76
2022-12-01T15:20:42.399Z,-6.86
2022-12-01T15:23:17.235Z,-6.79
2022-12-01T15:25:47.381Z,-6.68
2022-12-01T15:28:17.735Z,-6.76
2022-12-01T15:30:49.053Z,-7.24
2022-12-01T15:33:27.001Z,-6.79
2022-12-01T15:36:29.528Z,-6.62
2022-12-01T15:39:03.589Z,-6.67
2022-12-01T15:41:35.819Z,-6.65
2022-12-01T15:44:05.540Z,-7.14
2022-12-01T15:46:37.330Z,-6.68
2022-12-01T15:49:32.968Z,-6.79
2022-12-01T15:52:12.709Z,-6.84
2022-12-01T15:54:39.989Z,-6.88
2022-12-01T15:57:07.405Z,-6.84
2022-12-01T15:59:37.248Z,-6.81
2022-12-01T16:02:39.805Z,-6.85
2022-12-01T16:05:18.834Z,-7.00
2022-12-01T16:08:12.531Z,-6.95
2022-12-01T16:10:36.930Z,-6.90
2022-12-01T16:13:37.885Z,-6.93
2022-12-01T16:16:44.016Z,-7.00
2022-12-01T16:19:12.258Z,-7.04
2022-12-01T16:21:50.078Z,-7.00
2022-12-01T16:24:21.017Z,-6.97
2022-12-01T16:26:51.051Z,-6.99
2022-12-01T16:29:21.088Z,-6.99
2022-12-01T16:32:18.807Z,-7.23
2022-12-01T16:34:52.289Z,-7.07
2022-12-01T16:37:21.642Z,-7.03
2022-12-01T16:39:49.152Z,-7.09
2022-12-01T16:42:21.167Z,-7.05
2022-12-01T16:44:49.888Z,-7.17
2022-12-01T16:47:23.160Z,-7.32
2022-12-01T16:49:52.060Z,-7.25
2022-12-01T16:52:43.617Z,-7.18
2022-12-01T16:55:19.271Z,-7.03
2022-12-01T16:57:46.235Z,-7.24
2022-12-01T17:00:13.849Z,-7.21
2022-12-01T17:02:40.835Z,-7.19
2022-12-01T17:05:45.423Z,-7.17
2022-12-01T17:08:12.633Z,-7.20
2022-12-01T17:10:41.477Z,-7.22
2022-12-01T17:13:08.746Z,-7.21
2022-12-01T17:15:35.882Z,-7.23
2022-12-01T17:18:02.911Z,-7.19
2022-12-01T17:20:29.935Z,-7.19
2022-12-01T17:22:56.955Z,-7.32
2022-12-01T17:25:25.344Z,-7.21
2022-12-01T17:27:52.375Z,-7.32
2022-12-01T17:30:19.494Z,-7.22
2022-12-01T17:32:49.236Z,-7.33
2022-12-01T17:35:16.830Z,-7.30
2022-12-01T17:37:45.163Z,-7.29
2022-12-01T17:40:15.942Z,-7.35
2022-12-01T17:42:49.973Z,-7.51
2022-12-01T17:45:18.919Z,-7.45
2022-12-01T17:47:46.231Z,-7.72
2022-12-01T17:50:13.306Z,-7.49
2022-12-01T17:52:40.467Z,-7.55
2022-12-01T17:55:09.443Z,-7.47
2022-12-01T17:57:36.529Z,-7.53
2022-12-01T18:00:05.956Z,-7.78
2022-12-01T18:02:36.846Z,-7.59
2022-12-01T18:05:04.186Z,-7.59
2022-12-01T18:07:31.351Z,-7.67
2022-12-01T18:09:58.380Z,-7.60
2022-12-01T18:12:25.383Z,-7.84
2022-12-01T18:14:52.618Z,-7.80
2022-12-01T18:17:19.949Z,-7.80
2022-12-01T18:19:47.067Z,-7.73
2022-12-01T18:22:14.054Z,-7.63
2022-12-01T18:24:41.047Z,-7.69
2022-12-01T18:27:08.027Z,-7.75
2022-12-01T18:29:35.424Z,-8.31
2022-12-01T18:32:02.465Z,-7.68
2022-12-01T18:34:32.506Z,-8.09
2022-12-01T18:37:01.695Z,-7.83
2022-12-01T18:39:29.340Z,-7.89
2022-12-01T18:41:56.444Z,-7.84
2022-12-01T18:44:23.710Z,-7.96
2022-12-01T18:46:50.880Z,-7.81
2022-12-01T18:49:18.100Z,-7.96
2022-12-01T18:51:45.224Z,-8.07
2022-12-01T18:54:16.628Z,-7.72
2022-12-01T18:56:43.705Z,-7.69
2022-12-01T18:59:12.686Z,-7.71
2022-12-01T19:01:43.890Z,-7.68
2022-12-01T19:04:11.809Z,-7.78
2022-12-01T19:06:40.118Z,-7.81
2022-12-01T19:09:09.480Z,-7.86
2022-12-01T19:11:37.295Z,-8.09
2022-12-01T19:14:05.015Z,-7.95
2022-12-01T19:16:32.327Z,-7.90
2022-12-01T19:19:01.576Z,-7.88
2022-12-01T19:21:28.696Z,-7.88
2022-12-01T19:23:56.290Z,-7.94
2022-12-01T19:26:25.643Z,-7.89
2022-12-01T19:28:52.847Z,-7.90
2022-12-01T19:31:24.463Z,-7.88
2022-12-01T19:33:53.511Z,-7.92
2022-12-01T19:36:23.252Z,-8.20
2022-12-01T19:38:51.152Z,-8.21
2022-12-01T19:41:24.262Z,-8.20
2022-12-01T19:43:53.497Z,-8.14
2022-12-01T19:46:23.509Z,-8.18
2022-12-01T19:49:00.653Z,-8.14
2022-12-01T19:51:30.998Z,-8.16
2022-12-01T19:53:59.461Z,-8.14
2022-12-01T19:56:27.756Z,-8.14
2022-12-01T19:58:54.919Z,-8.38
2022-12-01T20:01:22.085Z,-8.35
2022-12-01T20:03:51.019Z,-8.40
2022-12-01T20:06:21.423Z,-8.63
2022-12-01T20:08:48.603Z,-8.48
2022-12-01T20:11:16.085Z,-8.49
2022-12-01T20:13:45.082Z,-8.48
2022-12-01T20:16:18.321Z,-9.19
2022-12-01T20:18:45.653Z,-8.61
2022-12-01T20:21:17.402Z,-8.73
2022-12-01T20:23:47.256Z,-8.69
2022-12-01T20:26:16.189Z,-8.81
2022-12-01T20:28:45.637Z,-8.87
2022-12-01T20:31:19.504Z,-8.88
2022-12-01T20:33:46.667Z,-8.89
2022-12-01T20:36:14.700Z,-8.87
2022-12-01T20:38:41.927Z,-8.90
2022-12-01T20:41:09.990Z,-8.84
2022-12-01T20:43:37.122Z,-8.90
2022-12-01T20:46:04.998Z,-8.88
2022-12-01T20:48:32.618Z,-8.82
2022-12-01T20:51:01.161Z,-9.35
2022-12-01T20:53:28.521Z,-8.76
2022-12-01T20:55:55.934Z,-8.76
2022-12-01T20:58:23.164Z,-9.01
2022-12-01T21:00:50.375Z,-9.08
2022-12-01T21:03:17.359Z,-8.94
2022-12-01T21:05:44.658Z,-8.89
2022-12-01T21:08:13.436Z,-8.84
2022-12-01T21:10:44.917Z,-8.89
2022-12-01T21:13:44.422Z,-8.89
2022-12-01T21:16:26.928Z,-9.00
2022-12-01T21:19:00.110Z,-9.09
2022-12-01T21:21:28.335Z,-8.87
2022-12-01T21:24:02.960Z,-8.99
2022-12-01T21:26:30.140Z,-8.75
2022-12-01T21:29:00.008Z,-8.70
2022-12-01T21:31:27.145Z,-8.66
2022-12-01T21:33:55.369Z,-8.64
2022-12-01T21:36:24.124Z,-8.69
2022-12-01T21:38:55.502Z,-8.71
2022-12-01T21:41:30.303Z,-8.98
2022-12-01T21:44:05.310Z,-8.85
2022-12-01T21:46:32.302Z,-8.88
2022-12-01T21:49:01.454Z,-8.91
2022-12-01T21:51:30.659Z,-8.86
2022-12-01T21:53:58.150Z,-8.77
2022-12-01T21:56:29.260Z,-8.79
2022-12-01T21:58:59.551Z,-8.77
2022-12-01T22:01:29.754Z,-8.94
2022-12-01T22:04:02.392Z,-8.71
2022-12-01T22:06:40.994Z,-8.74
2022-12-01T22:09:31.971Z,-9.06
2022-12-01T22:12:20.939Z,-9.09
2022-12-01T22:14:48.995Z,-9.24
2022-12-01T22:17:20.101Z,-9.32
2022-12-01T22:19:57.637Z,-9.24
2022-12-01T22:22:29.453Z,-9.28
2022-12-01T22:25:11.734Z,-9.16
2022-12-01T22:27:40.323Z,-9.12
2022-12-01T22:30:09.967Z,-9.06
2022-12-01T22:32:58.535Z,-8.97
2022-12-01T22:35:33.088Z,-9.12
2022-12-01T22:38:26.112Z,-8.92
2022-12-01T22:41:12.251Z,-8.91
2022-12-01T22:43:52.199Z,-9.14
2022-12-01T22:46:32.553Z,-9.04
2022-12-01T22:49:11.478Z,-9.00
2022-12-01T22:51:51.771Z,-9.10
2022-12-01T22:54:26.612Z,-9.01
2022-12-01T22:57:02.487Z,-8.98
2022-12-01T22:59:37.556Z,-8.96
2022-12-01T23:02:24.983Z,-8.96
2022-12-01T23:05:13.856Z,-8.99
2022-12-01T23:07:42.980Z,-9.03
2022-12-01T23:10:17.528Z,-9.12
2022-12-01T23:12:46.599Z,-9.31
2022-12-01T23:15:37.517Z,-9.12
2022-12-01T23:18:20.896Z,-9.12
2022-12-01T23:20:50.936Z,-9.23
2022-12-01T23:23:20.160Z,-9.63
2022-12-01T23:25:50.346Z,-9.19
2022-12-01T23:28:17.934Z,-9.18
2022-12-01T23:30:46.357Z,-9.11
2022-12-01T23:33:28.449Z,-9.13
2022-12-01T23:36:18.926Z,-9.06
2022-12-01T23:38:49.082Z,-9.17
2022-12-01T23:41:33.040Z,-9.05
2022-12-01T23:44:32.280Z,-9.01
2022-12-01T23:46:59.678Z,-9.04
2022-12-01T23:49:31.529Z,-9.11
2022-12-01T23:52:02.319Z,-9.03
2022-12-01T23:54:34.974Z,-8.99
2022-12-01T23:57:04.757Z,-8.97
2022-12-01T23:59:32.258Z,-9.26
